Time;durP1;ratioP1;P1;durP2;ratioP2;P2;SDS_P1;SDS_P2;PMS_P1;PMS_P2;Temp;Humidity;BMP_temperature;BMP_pressure;BME280_temperature;BME280_humidity;BME280_pressure;Samples;Min_cycle;Max_cycle;Signal;HPM_P1;HPM_P2
2021/03/28 00:01:33;;;;;;;9.15;2.83;;;;;;;6.40;74.09;101811.09;4993614;28;20033;-71
2021/03/28 00:04:00;;;;;;;7.80;3.28;;;;;;;6.50;72.18;101811.38;5005543;28;20034;-71
2021/03/28 00:06:36;;;;;;;7.63;3.30;;;;;;;6.57;71.50;101808.28;5006485;28;20117;-72
2021/03/28 00:09:23;;;;;;;8.23;3.42;;;;;;;6.60;71.27;101807.25;5008410;28;20499;-71
2021/03/28 00:12:27;;;;;;;7.95;3.15;;;;;;;6.50;73.22;101814.03;5001313;28;20046;-71
2021/03/28 00:15:02;;;;;;;7.30;2.85;;;;;;;6.55;71.87;101809.31;5006493;28;20494;-72
2021/03/28 00:17:48;;;;;;;5.30;2.55;;;;;;;6.59;71.79;101814.28;4996314;28;20496;-72
2021/03/28 00:20:16;;;;;;;7.57;3.25;;;;;;;6.54;73.01;101818.16;5003308;28;20034;-72
2021/03/28 00:22:49;;;;;;;6.18;2.80;;;;;;;6.51;73.10;101820.97;4992286;28;20256;-71
2021/03/28 00:25:21;;;;;;;6.57;3.22;;;;;;;6.48;73.43;101816.72;5003618;28;20031;-71
2021/03/28 00:27:51;;;;;;;5.47;2.90;;;;;;;6.51;72.71;101819.19;4991940;28;20557;-71
2021/03/28 00:30:39;;;;;;;7.95;3.33;;;;;;;6.50;72.65;101819.28;5003348;28;20407;-71
2021/03/28 00:33:10;;;;;;;7.55;2.78;;;;;;;6.49;73.09;101818.44;4998098;28;20131;-71
2021/03/28 00:36:00;;;;;;;7.43;3.38;;;;;;;6.55;72.48;101825.97;5005257;28;20084;-71
2021/03/28 00:38:44;;;;;;;7.22;2.67;;;;;;;6.61;71.98;101818.63;5010361;28;20049;-71
2021/03/28 00:41:21;;;;;;;8.07;2.42;;;;;;;6.76;70.80;101822.94;5010904;28;20030;-72
2021/03/28 00:44:07;;;;;;;8.30;2.55;;;;;;;6.87;70.51;101823.13;5005639;28;20041;-71
2021/03/28 00:46:44;;;;;;;5.10;2.35;;;;;;;6.92;70.57;101822.84;4989239;28;20039;-71
2021/03/28 00:49:21;;;;;;;6.30;2.40;;;;;;;6.88;71.50;101819.53;4993113;28;20064;-71
2021/03/28 00:51:51;;;;;;;6.03;2.30;;;;;;;6.71;72.41;101822.38;5011068;28;20034;-71
2021/03/28 00:54:19;;;;;;;4.72;1.80;;;;;;;6.77;71.30;101829.91;5005167;28;20108;-71
2021/03/28 00:56:51;;;;;;;6.15;2.22;;;;;;;6.91;70.68;101818.50;5010226;28;20088;-71
2021/03/28 00:59:27;;;;;;;7.70;2.53;;;;;;;6.98;70.32;101819.78;5004867;28;20080;-71
2021/03/28 01:02:11;;;;;;;5.75;2.20;;;;;;;6.99;69.92;101819.72;5010304;28;20441;-71
2021/03/28 01:04:46;;;;;;;5.60;2.53;;;;;;;6.94;71.41;101820.94;5008827;28;20038;-71
2021/03/28 01:07:33;;;;;;;7.97;1.92;;;;;;;6.96;70.57;101819.03;5010728;28;20080;-71
2021/03/28 01:10:16;;;;;;;10.70;3.30;;;;;;;7.07;69.60;101815.75;5009842;28;20246;-71
2021/03/28 01:12:42;;;;;;;7.88;2.88;;;;;;;7.16;68.93;101823.91;5007111;28;20041;-71
2021/03/28 01:15:45;;;;;;;8.17;2.80;;;;;;;7.19;68.70;101810.53;5010485;28;20409;-71
2021/03/28 01:18:31;;;;;;;9.73;3.35;;;;;;;7.26;68.20;101802.28;4988530;28;20301;-71
2021/03/28 01:21:18;;;;;;;6.32;2.50;;;;;;;7.22;67.95;101802.47;4996672;28;20101;-71
2021/03/28 01:23:45;;;;;;;7.40;2.80;;;;;;;7.23;67.90;101803.31;5009979;28;20034;-71
2021/03/28 01:26:29;;;;;;;7.88;2.22;;;;;;;7.26;67.61;101802.28;5008722;28;20189;-72
2021/03/28 01:28:58;;;;;;;4.85;2.20;;;;;;;7.27;67.67;101801.31;5008073;28;20137;-71
2021/03/28 01:31:49;;;;;;;7.97;2.15;;;;;;;7.22;67.91;101804.25;4996899;28;20068;-71
2021/03/28 01:34:19;;;;;;;6.95;2.05;;;;;;;7.18;68.20;101808.03;5002148;28;20038;-71
2021/03/28 01:37:00;;;;;;;6.80;2.00;;;;;;;7.22;68.05;101806.88;5009640;28;20509;-72
2021/03/28 01:39:38;;;;;;;6.35;1.80;;;;;;;7.21;68.07;101807.81;5010451;28;20034;-71
2021/03/28 01:42:17;;;;;;;4.50;1.88;;;;;;;7.17;68.45;101817.69;5006026;28;20045;-71
2021/03/28 01:44:49;;;;;;;4.53;1.80;;;;;;;7.18;67.82;101808.88;5006580;28;20364;-71
2021/03/28 01:47:33;;;;;;;7.45;2.13;;;;;;;7.29;66.93;101809.97;5002050;28;20471;-71
2021/03/28 01:50:36;;;;;;;9.73;2.55;;;;;;;7.38;66.10;101810.19;5009516;28;20346;-72
2021/03/28 01:53:47;;;;;;;6.15;2.20;;;;;;;7.43;66.31;101805.47;5007235;28;20128;-71
2021/03/28 01:56:25;;;;;;;8.02;2.28;;;;;;;7.43;65.66;101800.22;5001152;28;20030;-71
2021/03/28 01:59:21;;;;;;;6.88;1.50;;;;;;;7.47;65.69;101795.63;5009653;28;20042;-71
2021/03/28 02:02:18;;;;;;;4.22;1.60;;;;;;;7.48;65.73;101793.81;5009613;28;20034;-72
2021/03/28 02:04:57;;;;;;;3.60;1.75;;;;;;;7.39;66.66;101804.00;5007828;28;20049;-71
2021/03/28 02:07:45;;;;;;;3.78;1.65;;;;;;;7.40;66.19;101808.31;5009992;28;20057;-72
2021/03/28 02:10:32;;;;;;;6.47;1.98;;;;;;;7.47;65.90;101800.88;5008525;28;20133;-72
2021/03/28 02:13:25;;;;;;;7.05;2.10;;;;;;;7.53;65.49;101811.00;5003123;28;20038;-72
2021/03/28 02:16:23;;;;;;;7.07;2.15;;;;;;;7.54;65.40;101807.44;5006738;28;20034;-72
2021/03/28 02:18:57;;;;;;;7.00;2.00;;;;;;;7.55;64.94;101803.84;4988309;28;20042;-71
2021/03/28 02:21:40;;;;;;;7.97;2.03;;;;;;;7.58;64.78;101810.69;5003423;28;20037;-71
2021/03/28 02:24:19;;;;;;;8.45;2.28;;;;;;;7.58;64.16;101802.78;5002034;28;20480;-72
2021/03/28 02:26:50;;;;;;;7.75;2.28;;;;;;;7.59;64.41;101804.50;5003675;28;20044;-71
2021/03/28 02:29:38;;;;;;;5.57;2.20;;;;;;;7.64;64.34;101805.03;4998254;28;20525;-72
2021/03/28 02:32:32;;;;;;;8.93;2.42;;;;;;;7.64;64.24;101797.13;5009717;28;20065;-72
2021/03/28 02:35:06;;;;;;;7.28;2.00;;;;;;;7.61;64.45;101802.59;5010627;28;20026;-72
2021/03/28 02:38:09;;;;;;;5.75;1.88;;;;;;;7.62;64.47;101806.91;5013794;28;20034;-72
2021/03/28 02:40:53;;;;;;;6.15;2.00;;;;;;;7.58;64.73;101808.94;5012851;28;20104;-72
2021/03/28 02:43:18;;;;;;;5.55;1.70;;;;;;;7.59;64.69;101809.75;4995391;28;20046;-72
2021/03/28 02:46:01;;;;;;;6.47;1.83;;;;;;;7.61;64.22;101806.06;5013036;28;20049;-72
2021/03/28 02:48:52;;;;;;;3.55;1.52;;;;;;;7.57;64.95;101814.28;5004798;28;20253;-72
2021/03/28 02:51:32;;;;;;;7.43;2.70;;;;;;;7.59;64.59;101813.22;5009522;28;20498;-72
2021/03/28 02:54:11;;;;;;;10.97;2.60;;;;;;;7.65;64.43;101815.47;5007118;28;20660;-72
2021/03/28 02:57:16;;;;;;;7.82;2.15;;;;;;;7.62;64.45;101815.66;5009176;28;20038;-72
2021/03/28 03:00:05;;;;;;;7.85;2.30;;;;;;;7.65;64.37;101810.22;4999093;28;20034;-72
2021/03/28 03:03:01;;;;;;;7.13;2.20;;;;;;;7.61;63.91;101824.50;5012655;28;20402;-72
2021/03/28 03:05:38;;;;;;;7.18;2.03;;;;;;;7.68;64.00;101826.75;5007665;28;20030;-72
2021/03/28 03:08:41;;;;;;;5.15;2.05;;;;;;;7.62;64.33;101830.59;5004668;28;20377;-72
2021/03/28 03:11:35;;;;;;;7.97;2.33;;;;;;;7.61;64.29;101832.41;4976996;28;20034;-72
2021/03/28 03:14:42;;;;;;;5.30;2.30;;;;;;;7.59;64.47;101836.09;5010339;28;20069;-72
2021/03/28 03:17:35;;;;;;;9.68;2.47;;;;;;;7.61;63.90;101831.56;4987892;28;20039;-72
2021/03/28 03:20:03;;;;;;;7.13;2.92;;;;;;;7.63;64.09;101824.41;5011947;28;20446;-72
2021/03/28 03:22:40;;;;;;;5.57;2.05;;;;;;;7.59;64.16;101812.38;4995738;28;20061;-72
2021/03/28 03:25:43;;;;;;;5.50;1.98;;;;;;;7.57;63.87;101816.91;4994350;28;20045;-72
2021/03/28 03:28:31;;;;;;;5.90;2.42;;;;;;;7.52;64.15;101813.75;5004898;28;20057;-72
2021/03/28 03:31:09;;;;;;;5.93;2.20;;;;;;;7.51;63.89;101817.28;5012391;28;20038;-72
2021/03/28 03:34:08;;;;;;;10.80;2.90;;;;;;;7.56;63.40;101815.22;5006285;28;20038;-72
2021/03/28 03:36:55;;;;;;;6.32;2.30;;;;;;;7.53;63.89;101810.16;4989046;28;20522;-72
2021/03/28 03:39:34;;;;;;;6.40;2.47;;;;;;;7.55;63.57;101806.47;5009634;28;20061;-72
2021/03/28 03:42:24;;;;;;;6.85;2.00;;;;;;;7.51;64.08;101812.03;5009002;28;20026;-72
2021/03/28 03:45:12;;;;;;;8.32;2.53;;;;;;;7.50;63.56;101805.09;5004763;28;20038;-72
2021/03/28 03:48:03;;;;;;;7.78;2.55;;;;;;;7.55;63.55;101803.00;4994298;28;20496;-72
2021/03/28 03:50:50;;;;;;;;;;;;;;;7.50;63.69;101800.66;5011246;28;20457;-72
2021/03/28 03:53:22;;;;;;;6.13;2.78;;;;;;;7.55;63.17;101800.38;5011444;28;20370;-72
2021/03/28 03:55:57;;;;;;;8.55;2.78;;;;;;;7.51;63.18;101801.50;4995216;28;20088;-72
2021/03/28 03:58:22;;;;;;;6.68;2.28;;;;;;;7.50;63.15;101798.03;4999952;28;20077;-72
2021/03/28 04:00:54;;;;;;;9.90;2.87;;;;;;;7.53;63.33;101802.25;4992772;28;20035;-72
2021/03/28 04:04:01;;;;;;;7.60;2.40;;;;;;;7.53;62.70;101808.38;5005095;28;20344;-72
2021/03/28 04:07:03;;;;;;;5.05;1.77;;;;;;;7.53;62.76;101811.00;4953179;28;20043;-71
2021/03/28 04:10:13;;;;;;;6.10;1.90;;;;;;;7.49;62.68;101806.88;5007107;28;20038;-72
2021/03/28 04:12:53;;;;;;;5.30;2.00;;;;;;;7.48;63.06;101807.81;5007972;28;20038;-72
2021/03/28 04:15:42;;;;;;;8.35;2.10;;;;;;;7.48;63.04;101801.72;5011401;28;20026;-72
2021/03/28 04:18:43;;;;;;;8.07;2.10;;;;;;;7.55;62.75;101803.00;4990455;28;20058;-72
2021/03/28 04:21:27;;;;;;;8.43;2.53;;;;;;;7.55;62.73;101803.00;5009251;28;20030;-72
2021/03/28 04:24:11;;;;;;;6.90;2.38;;;;;;;7.55;62.62;101798.56;4990733;28;20090;-72
2021/03/28 04:27:07;;;;;;;8.63;2.17;;;;;;;7.52;63.00;101804.03;5007931;28;20091;-71
2021/03/28 04:29:33;;;;;;;9.57;2.00;;;;;;;7.47;62.93;101805.31;5007833;28;20294;-71
2021/03/28 04:32:13;;;;;;;6.15;1.80;;;;;;;7.42;63.32;101810.88;5001209;28;20117;-72
2021/03/28 04:34:56;;;;;;;8.25;1.95;;;;;;;7.38;63.66;101810.19;5011219;28;20052;-72
2021/03/28 04:37:42;;;;;;;4.75;1.98;;;;;;;7.32;64.36;101815.88;5007399;28;20395;-71
2021/03/28 04:40:10;;;;;;;5.43;1.77;;;;;;;7.28;64.42;101811.75;5003447;28;20316;-72
2021/03/28 04:43:04;;;;;;;6.28;1.90;;;;;;;7.27;64.32;101823.22;5006126;28;20092;-72
2021/03/28 04:45:48;;;;;;;6.05;2.30;;;;;;;7.22;64.97;101823.53;4992031;28;20038;-72
2021/03/28 04:48:46;;;;;;;5.53;1.80;;;;;;;7.22;65.07;101834.03;4997937;28;20497;-72
2021/03/28 04:51:29;;;;;;;4.43;2.00;;;;;;;7.31;64.59;101831.75;5004859;28;20069;-72
2021/03/28 04:54:32;;;;;;;7.70;2.72;;;;;;;7.36;64.36;101834.94;5006892;28;20066;-72
2021/03/28 04:57:25;;;;;;;8.07;2.13;;;;;;;7.34;64.21;101834.19;5010262;28;20037;-72
2021/03/28 05:00:29;;;;;;;9.18;2.60;;;;;;;7.38;64.00;101830.41;4993092;28;20394;-71
2021/03/28 05:03:08;;;;;;;8.32;2.53;;;;;;;7.35;64.16;101830.63;5008777;28;20098;-72
2021/03/28 05:05:38;;;;;;;8.18;2.13;;;;;;;7.36;63.78;101824.41;5010747;28;20038;-72
2021/03/28 05:08:23;;;;;;;8.82;2.88;;;;;;;7.39;63.61;101830.34;5007978;28;20026;-72
2021/03/28 05:11:03;;;;;;;6.60;2.45;;;;;;;7.44;63.18;101825.59;5009239;28;20566;-72
2021/03/28 05:13:59;;;;;;;8.20;2.40;;;;;;;7.42;63.21;101832.75;5010896;28;20430;-72
2021/03/28 05:16:54;;;;;;;7.90;2.40;;;;;;;7.35;63.61;101836.72;4991946;28;20035;-72
2021/03/28 05:19:42;;;;;;;8.43;2.33;;;;;;;7.33;63.80;101833.34;5010919;28;20379;-72
2021/03/28 05:22:47;;;;;;;8.45;2.40;;;;;;;7.34;63.58;101828.91;4970571;28;20037;-72
2021/03/28 05:25:49;;;;;;;5.15;2.00;;;;;;;7.34;63.40;101827.16;5009977;28;20045;-72
2021/03/28 05:28:33;;;;;;;11.07;2.90;;;;;;;7.30;63.33;101836.19;5004025;28;20030;-72
2021/03/28 05:31:10;;;;;;;7.97;2.70;;;;;;;7.30;63.29;101830.09;5005641;28;20495;-72
2021/03/28 05:34:00;;;;;;;8.00;2.60;;;;;;;7.33;63.10;101837.78;5008149;28;20044;-72
2021/03/28 05:36:43;;;;;;;7.57;2.30;;;;;;;7.32;62.80;101836.94;5004894;28;20042;-72
2021/03/28 05:39:35;;;;;;;8.82;3.47;;;;;;;7.37;62.45;101839.28;5005305;28;20039;-72
2021/03/28 05:42:15;;;;;;;;;;;;;;;7.38;62.29;101854.94;5004516;28;20040;-72
2021/03/28 05:44:50;;;;;;;5.57;2.33;;;;;;;7.36;62.87;101848.94;4999887;28;20099;-72
2021/03/28 05:47:43;;;;;;;7.68;2.50;;;;;;;7.39;62.57;101851.38;5007351;28;20030;-72
2021/03/28 05:50:32;;;;;;;6.72;2.30;;;;;;;7.49;62.59;101843.72;5001490;28;20026;-72
2021/03/28 05:53:19;;;;;;;8.63;2.70;;;;;;;7.61;62.00;101858.72;5009983;28;20395;-72
2021/03/28 05:56:03;;;;;;;12.02;3.20;;;;;;;7.67;61.44;101865.38;5000249;28;20446;-72
2021/03/28 05:58:44;;;;;;;10.60;2.97;;;;;;;7.67;61.34;101875.91;4998014;28;20065;-72
2021/03/28 06:01:13;;;;;;;7.85;2.85;;;;;;;7.74;61.30;101873.72;4985135;28;20034;-73
2021/03/28 06:04:03;;;;;;;11.65;2.92;;;;;;;7.90;60.39;101879.66;5010222;28;20038;-73
2021/03/28 06:06:52;;;;;;;7.85;2.40;;;;;;;8.21;59.78;101882.91;5004566;28;20042;-71
2021/03/28 06:10:28;;;;;;;9.35;3.13;;;;;;;8.57;58.44;101890.13;5006193;28;20045;-72
2021/03/28 06:12:54;;;;;;;9.90;2.85;;;;;;;9.18;58.12;101886.81;4947481;29;20537;-72
2021/03/28 06:15:51;;;;;;;8.23;2.47;;;;;;;9.51;56.36;101894.09;4949156;29;20070;-71
2021/03/28 06:18:35;;;;;;;11.05;2.70;;;;;;;9.74;55.54;101890.59;5000522;28;20521;-72
2021/03/28 06:21:03;;;;;;;6.55;2.60;;;;;;;9.59;55.59;101889.09;5009402;28;20038;-72
2021/03/28 06:24:01;;;;;;;6.05;2.50;;;;;;;9.34;55.51;101893.53;5009522;28;20406;-72
2021/03/28 06:27:09;;;;;;;9.30;3.05;;;;;;;9.35;56.25;101900.47;4997987;28;20038;-72
2021/03/28 06:29:58;;;;;;;7.55;2.42;;;;;;;9.40;56.11;101899.31;5005737;28;20184;-72
2021/03/28 06:32:56;;;;;;;7.47;2.42;;;;;;;9.40;56.00;101894.88;5003480;28;20049;-72
2021/03/28 06:35:50;;;;;;;7.38;2.30;;;;;;;9.38;55.67;101901.22;5003709;28;20034;-72
2021/03/28 06:38:21;;;;;;;12.23;2.78;;;;;;;9.16;55.59;101905.38;4996095;28;20041;-72
2021/03/28 06:41:06;;;;;;;6.40;2.75;;;;;;;9.00;56.08;101913.53;5001283;28;20042;-72
2021/03/28 06:44:09;;;;;;;7.68;2.25;;;;;;;8.83;56.66;101927.91;4997836;28;20044;-72
2021/03/28 06:46:56;;;;;;;7.60;3.00;;;;;;;8.73;56.88;101929.50;5001453;28;20568;-72
2021/03/28 06:49:43;;;;;;;8.88;2.55;;;;;;;8.73;57.24;101931.28;4997991;28;20491;-72
2021/03/28 06:52:26;;;;;;;7.75;2.50;;;;;;;8.66;57.36;101925.59;5006185;28;20037;-73
2021/03/28 06:55:13;;;;;;;8.35;2.40;;;;;;;8.61;57.12;101919.78;5005582;28;20045;-72
2021/03/28 06:58:25;;;;;;;9.02;2.70;;;;;;;8.55;57.45;101928.09;4985031;28;20399;-72
2021/03/28 07:01:12;;;;;;;5.63;2.30;;;;;;;8.55;57.40;101943.91;4990574;28;20461;-72
2021/03/28 07:03:57;;;;;;;9.82;2.90;;;;;;;8.44;57.21;101942.84;5008560;28;20041;-72
2021/03/28 07:06:47;;;;;;;9.68;2.70;;;;;;;8.35;57.30;101945.25;5008250;28;20038;-72
2021/03/28 07:09:26;;;;;;;7.30;2.78;;;;;;;8.29;57.21;101944.69;4994222;28;20030;-72
2021/03/28 07:12:08;;;;;;;6.22;2.67;;;;;;;8.21;57.71;101954.06;4993106;28;20112;-72
2021/03/28 07:14:52;;;;;;;11.73;2.88;;;;;;;8.19;57.92;101946.25;5008852;28;20545;-72
2021/03/28 07:17:39;;;;;;;6.45;2.80;;;;;;;8.25;57.85;101959.03;5011554;28;20026;-73
2021/03/28 07:20:29;;;;;;;9.00;2.97;;;;;;;8.25;58.20;101956.38;5011645;28;20034;-72
2021/03/28 07:23:20;;;;;;;7.82;2.58;;;;;;;8.37;57.68;101953.88;5012590;28;20045;-72
2021/03/28 07:25:48;;;;;;;6.70;2.40;;;;;;;8.59;58.23;101950.69;4995165;28;20042;-72
2021/03/28 07:28:57;;;;;;;6.20;2.13;;;;;;;9.39;56.96;101967.13;4992756;28;20053;-72
2021/03/28 07:31:44;;;;;;;7.32;2.90;;;;;;;10.34;53.48;101967.28;5006570;28;20454;-72
2021/03/28 07:34:28;;;;;;;8.13;2.60;;;;;;;10.37;53.04;101954.69;4999175;28;20312;-73
2021/03/28 07:37:20;;;;;;;6.72;2.92;;;;;;;10.51;52.59;101958.09;5001733;28;20042;-72
2021/03/28 07:40:07;;;;;;;11.00;3.00;;;;;;;10.63;51.75;101965.13;5012057;28;20037;-72
2021/03/28 07:43:00;;;;;;;8.18;2.63;;;;;;;10.79;52.17;101967.41;5011631;28;20029;-72
2021/03/28 07:45:54;;;;;;;7.22;3.17;;;;;;;11.03;50.47;101972.59;5009979;28;20029;-73
2021/03/28 07:48:44;;;;;;;8.00;2.20;;;;;;;11.03;50.92;101970.78;4998439;28;20415;-72
2021/03/28 07:51:49;;;;;;;5.72;2.60;;;;;;;11.19;50.40;101969.63;4997746;28;20026;-72
2021/03/28 07:54:33;;;;;;;9.15;3.00;;;;;;;11.41;49.59;101966.94;5000708;28;20034;-72
2021/03/28 07:57:08;;;;;;;5.97;2.38;;;;;;;12.23;48.11;101963.06;5011193;28;20065;-73
2021/03/28 07:59:39;;;;;;;6.75;2.83;;;;;;;13.00;46.17;101969.84;5009185;28;20061;-73
2021/03/28 08:02:26;;;;;;;6.43;2.28;;;;;;;13.69;44.64;101969.97;5003594;28;20033;-73
2021/03/28 08:05:14;;;;;;;6.22;2.60;;;;;;;14.26;43.37;101972.00;5004217;28;20129;-75
2021/03/28 08:07:49;;;;;;;9.20;2.67;;;;;;;14.84;42.01;101975.41;5011253;28;20072;-73
2021/03/28 08:10:26;;;;;;;6.82;2.58;;;;;;;15.17;40.38;101977.72;5008651;28;20138;-73
2021/03/28 08:13:29;;;;;;;8.45;2.50;;;;;;;15.73;39.46;101984.78;5004732;28;20034;-73
2021/03/28 08:16:09;;;;;;;6.50;2.65;;;;;;;15.63;38.53;101987.44;5001291;28;20470;-73
2021/03/28 08:18:53;;;;;;;8.57;3.00;;;;;;;16.18;38.42;101981.19;5003251;28;20029;-71
2021/03/28 08:21:36;;;;;;;7.95;2.28;;;;;;;16.03;39.28;101982.72;5005633;28;20417;-74
2021/03/28 08:24:46;;;;;;;8.13;2.78;;;;;;;16.63;38.52;101985.56;5003969;28;20096;-72
2021/03/28 08:27:43;;;;;;;8.18;2.58;;;;;;;16.88;36.46;101985.78;4988898;28;20162;-72
2021/03/28 08:30:28;;;;;;;6.95;2.50;;;;;;;16.80;37.06;101985.72;4993534;28;20033;-72
2021/03/28 08:33:25;;;;;;;7.15;2.50;;;;;;;17.23;35.96;101978.59;5003218;28;20030;-72
2021/03/28 08:36:21;;;;;;;5.30;2.75;;;;;;;16.98;36.11;101982.00;4993668;28;20445;-72
2021/03/28 08:39:23;;;;;;;9.88;2.85;;;;;;;17.06;36.09;101978.53;5001626;28;20046;-72
2021/03/28 08:42:16;;;;;;;7.85;2.92;;;;;;;17.02;35.45;101974.50;5004596;28;20037;-72
2021/03/28 08:44:59;;;;;;;8.27;2.78;;;;;;;16.98;35.88;101975.81;5010689;28;20049;-72
2021/03/28 08:48:02;;;;;;;5.85;2.22;;;;;;;16.89;35.21;101979.44;5004913;28;20108;-72
2021/03/28 08:50:35;;;;;;;6.68;2.58;;;;;;;17.06;35.85;101973.19;5005724;28;20502;-72
2021/03/28 08:53:09;;;;;;;7.47;2.33;;;;;;;16.65;36.34;101966.72;5009306;28;20057;-71
2021/03/28 08:56:00;;;;;;;5.88;2.38;;;;;;;16.85;35.32;101960.22;5006291;28;20041;-72
2021/03/28 08:58:37;;;;;;;7.45;2.80;;;;;;;17.07;35.65;101955.34;5010558;28;20040;-72
2021/03/28 09:01:12;;;;;;;7.60;2.78;;;;;;;17.10;34.43;101957.69;5005905;28;20035;-72
2021/03/28 09:04:05;;;;;;;8.10;2.80;;;;;;;16.49;36.36;101956.75;5010443;28;20038;-71
2021/03/28 09:06:46;;;;;;;8.35;2.58;;;;;;;16.90;35.87;101951.72;5005332;28;20092;-71
2021/03/28 09:09:34;;;;;;;6.85;2.60;;;;;;;17.50;35.31;101958.84;5010436;28;20175;-72
2021/03/28 09:12:27;;;;;;;9.77;2.63;;;;;;;17.78;34.09;101959.41;5010446;28;20044;-71
2021/03/28 09:15:22;;;;;;;6.43;2.50;;;;;;;17.96;33.46;101960.13;5000579;28;20041;-71
2021/03/28 09:18:10;;;;;;;6.70;2.42;;;;;;;18.85;33.26;101952.25;4999071;28;20131;-75
2021/03/28 09:20:51;;;;;;;5.53;2.33;;;;;;;19.20;32.28;101953.63;4995530;28;20041;-72
2021/03/28 09:23:40;;;;;;;5.45;2.22;;;;;;;19.48;31.85;101964.75;4992207;28;20030;-74
2021/03/28 09:26:05;;;;;;;6.78;3.03;;;;;;;19.80;30.78;101962.09;4996085;28;20034;-71
2021/03/28 09:28:43;;;;;;;7.17;2.43;;;;;;;19.10;32.33;101961.06;4990050;28;20038;-71
2021/03/28 09:31:27;;;;;;;6.65;2.30;;;;;;;19.65;31.12;101952.06;5010478;28;20312;-71
2021/03/28 09:34:01;;;;;;;5.10;2.10;;;;;;;19.99;31.78;101956.25;4994522;28;20411;-72
2021/03/28 09:36:48;;;;;;;7.22;2.55;;;;;;;19.75;30.91;101948.38;4993517;28;20513;-72
2021/03/28 09:39:26;;;;;;;5.72;2.30;;;;;;;19.51;31.70;101950.97;5007531;28;20054;-72
2021/03/28 09:42:22;;;;;;;6.13;2.17;;;;;;;19.20;31.30;101950.97;5009831;28;20040;-71
2021/03/28 09:44:53;;;;;;;4.57;2.00;;;;;;;18.59;33.12;101942.56;5008973;28;20042;-71
2021/03/28 09:47:52;;;;;;;6.68;2.28;;;;;;;18.62;33.24;101944.91;5003474;28;20038;-71
2021/03/28 09:50:38;;;;;;;5.97;2.40;;;;;;;18.10;34.27;101937.22;5009225;28;20123;-71
2021/03/28 09:53:27;;;;;;;6.60;2.20;;;;;;;18.00;34.22;101932.03;5009566;28;20270;-71
2021/03/28 09:56:23;;;;;;;6.70;2.60;;;;;;;17.85;33.88;101938.22;5008735;28;20403;-72
2021/03/28 09:59:19;;;;;;;7.25;2.10;;;;;;;17.61;34.59;101931.78;5007303;28;20089;-71
2021/03/28 10:01:53;;;;;;;5.05;2.00;;;;;;;17.71;33.70;101924.47;5007541;28;20184;-72
2021/03/28 10:04:52;;;;;;;4.95;1.83;;;;;;;17.47;33.41;101917.22;5009333;28;20581;-73
2021/03/28 10:07:26;;;;;;;3.50;1.42;;;;;;;16.93;34.39;101912.16;5006972;28;20041;-71
2021/03/28 10:10:41;;;;;;;6.78;1.73;;;;;;;16.96;34.73;101916.34;4995213;28;20038;-72
2021/03/28 10:13:27;;;;;;;5.93;1.80;;;;;;;16.76;35.45;101903.19;4961538;28;20119;-71
2021/03/28 10:15:56;;;;;;;4.03;1.60;;;;;;;16.60;35.86;101897.75;5007663;28;20049;-71
2021/03/28 10:18:38;;;;;;;5.28;1.90;;;;;;;16.93;34.29;101906.81;5003152;28;20042;-72
2021/03/28 10:21:22;;;;;;;6.03;1.80;;;;;;;16.28;35.69;101893.88;5009099;28;20112;-72
2021/03/28 10:24:06;;;;;;;5.60;1.60;;;;;;;16.17;36.59;101907.47;5009646;28;20402;-72
2021/03/28 10:27:07;;;;;;;6.35;1.95;;;;;;;16.20;35.19;101899.16;4993791;28;20502;-72
2021/03/28 10:30:07;;;;;;;5.90;1.70;;;;;;;16.12;34.94;101893.75;5005368;28;20034;-71
2021/03/28 10:32:57;;;;;;;6.43;1.80;;;;;;;15.97;35.41;101898.81;4997972;28;20121;-74
2021/03/28 10:35:53;;;;;;;7.65;2.00;;;;;;;15.81;35.63;101896.81;4987731;28;20034;-72
2021/03/28 10:38:42;;;;;;;4.28;1.60;;;;;;;15.68;35.35;101896.31;5007024;28;20458;-73
2021/03/28 10:41:34;;;;;;;4.47;1.40;;;;;;;15.68;35.96;101894.50;5008635;28;20026;-71
2021/03/28 10:44:43;;;;;;;5.97;1.85;;;;;;;15.76;35.28;101892.94;4992945;28;20030;-74
2021/03/28 10:47:36;;;;;;;6.07;1.70;;;;;;;15.66;35.49;101892.97;5007331;28;20034;-72
2021/03/28 10:50:39;;;;;;;5.10;2.13;;;;;;;15.71;34.93;101898.75;5012249;28;20045;-72
2021/03/28 10:53:28;;;;;;;6.28;1.58;;;;;;;15.55;35.78;101896.72;5011816;28;20045;-72
2021/03/28 10:56:36;;;;;;;4.43;1.52;;;;;;;15.53;35.66;101897.84;5010620;28;20030;-71
2021/03/28 10:59:36;;;;;;;5.30;1.50;;;;;;;15.54;35.51;101895.03;5012538;28;21287;-73
2021/03/28 11:02:26;;;;;;;4.95;1.73;;;;;;;15.64;35.73;101893.13;4993942;28;20085;-72
2021/03/28 11:05:29;;;;;;;4.78;1.50;;;;;;;15.64;35.00;101886.97;5004239;28;20038;-71
2021/03/28 11:08:19;;;;;;;5.72;1.50;;;;;;;15.63;35.33;101890.59;4993607;28;20046;-71
2021/03/28 11:11:11;;;;;;;5.20;1.83;;;;;;;15.45;35.86;101880.78;5011738;28;20042;-70
2021/03/28 11:13:57;;;;;;;6.03;1.80;;;;;;;15.78;35.19;101877.59;5009649;28;20030;-71
2021/03/28 11:16:42;;;;;;;6.10;1.60;;;;;;;15.69;34.98;101884.69;5008161;28;20095;-73
2021/03/28 11:19:45;;;;;;;6.63;1.90;;;;;;;15.65;36.18;101877.97;5001569;28;20440;-72
2021/03/28 11:22:17;;;;;;;6.35;1.60;;;;;;;15.03;36.45;101873.28;5001701;28;20390;-72
2021/03/28 11:24:52;;;;;;;5.85;1.55;;;;;;;15.56;35.40;101882.38;4994500;28;20044;-73
2021/03/28 11:27:30;;;;;;;3.90;1.58;;;;;;;15.76;34.95;101866.28;5012985;28;20108;-74
2021/03/28 11:30:05;;;;;;;4.10;1.73;;;;;;;15.70;34.26;101865.88;5011794;28;20034;-74
2021/03/28 11:32:49;;;;;;;6.13;1.60;;;;;;;15.61;35.05;101861.44;5011708;28;20399;-74
2021/03/28 11:35:17;;;;;;;5.07;1.52;;;;;;;15.35;39.45;101863.16;5008125;28;20045;-72
2021/03/28 11:37:53;;;;;;;3.78;1.48;;;;;;;15.76;36.18;101867.13;5011357;28;20077;-72
2021/03/28 11:40:24;;;;;;;7.20;1.85;;;;;;;15.88;35.60;101860.53;4990653;28;20053;-72
2021/03/28 11:42:53;;;;;;;;;;;;;;;15.86;35.50;101857.19;5005204;28;20068;-72
2021/03/28 11:45:39;;;;;;;4.05;1.90;;;;;;;15.90;34.22;101845.22;5011253;28;19925;-73
2021/03/28 11:48:24;;;;;;;5.65;1.50;;;;;;;15.68;34.79;101849.19;4994650;28;20529;-72
2021/03/28 11:50:49;;;;;;;4.80;1.60;;;;;;;15.62;35.47;101851.63;5011930;28;20129;-72
2021/03/28 11:53:30;;;;;;;4.20;1.60;;;;;;;15.69;35.02;101850.00;5010718;28;20436;-71
2021/03/28 11:55:58;;;;;;;4.25;1.50;;;;;;;15.66;36.28;101844.97;4993774;28;20461;-73
2021/03/28 11:58:44;;;;;;;4.47;1.50;;;;;;;15.85;34.40;101850.19;5008405;28;20053;-72
2021/03/28 12:01:10;;;;;;;4.68;1.60;;;;;;;15.42;37.71;101841.09;4972736;28;20521;-71
2021/03/28 12:03:41;;;;;;;6.75;1.80;;;;;;;15.29;37.07;101833.47;5011388;28;20041;-71
2021/03/28 12:06:17;;;;;;;3.83;1.30;;;;;;;15.26;36.65;101831.09;5008294;28;20030;-72
2021/03/28 12:08:46;;;;;;;4.55;1.30;;;;;;;15.47;37.34;101830.81;5011401;28;20037;-72
2021/03/28 12:11:30;;;;;;;4.35;1.40;;;;;;;15.77;35.21;101823.44;5006390;28;20077;-73
2021/03/28 12:13:59;;;;;;;4.60;1.33;;;;;;;15.79;35.37;101815.28;5005349;28;20042;-72
2021/03/28 12:17:03;;;;;;;4.22;1.42;;;;;;;15.75;35.96;101828.09;5005370;28;20092;-72
2021/03/28 12:19:39;;;;;;;5.18;1.52;;;;;;;15.96;34.90;101824.25;5006079;28;20080;-72
2021/03/28 12:22:17;;;;;;;5.05;1.48;;;;;;;15.99;35.36;101822.09;5011006;28;20117;-75
2021/03/28 12:24:43;;;;;;;5.68;1.27;;;;;;;15.99;35.41;101818.59;4992689;28;20046;-72
2021/03/28 12:27:25;;;;;;;4.68;1.65;;;;;;;16.07;34.14;101819.50;5009162;28;20502;-72
2021/03/28 12:29:51;;;;;;;4.43;1.45;;;;;;;16.02;35.53;101812.97;5007221;28;20520;-72
2021/03/28 12:32:49;;;;;;;6.07;1.40;;;;;;;15.92;35.25;101813.03;5006696;28;20486;-72
2021/03/28 12:35:27;;;;;;;4.70;1.35;;;;;;;16.09;35.11;101809.53;4983012;28;20041;-72
2021/03/28 12:37:53;;;;;;;3.13;1.10;;;;;;;16.01;35.74;101809.44;5008321;28;20069;-73
2021/03/28 12:40:29;;;;;;;4.50;1.45;;;;;;;16.08;35.11;101805.16;5010450;28;20042;-72
2021/03/28 12:42:56;;;;;;;6.72;1.60;;;;;;;16.25;34.42;101806.09;4993161;28;20414;-72
2021/03/28 12:45:32;;;;;;;4.68;1.30;;;;;;;16.20;34.18;101789.72;5010726;28;20041;-72
2021/03/28 12:48:00;;;;;;;5.00;1.30;;;;;;;16.10;34.76;101797.84;4990790;28;20045;-71
2021/03/28 12:50:33;;;;;;;4.68;1.40;;;;;;;15.74;36.68;101790.91;5008589;28;20033;-71
2021/03/28 12:53:01;;;;;;;6.38;1.60;;;;;;;15.96;35.93;101794.91;5008247;28;20137;-71